Sandy Hook, Virginia
Current Conditions -  °F | °C
As of 1:35 PM on Wednesday 26 Nov 2014 (Local Time) from K7W4 Reporting Station
Overcast Overcast  
Wind Chill: 28°   Ceiling: 700
Heat Index: 35°   Visibility: 10mi
Dew Point: 33°   Wind: 10mph
Humidity: 93%   Direction: 340°NNW
Pressure: 29.89"   Gusts: 17mph
Location:  37.75°N, 77.91°W
Report Text: K7W4 261835Z AUTO 34009G15KT 10SM OVC007 02/01 A2989 RMK AO1 P0002 T00180008
Loading
Personal Weather Stations






























Interactive Weather Map New forecast layout! Learn more

10-Day Weather Forecast

Advertisements
Track Severe Weather on mobile